Terminal Aerodrome Forecast
Issued by NWS La Crosse, WI

Home | Current Version | Previous Version | Text Only | Print | Product List | Glossary On
Versions: 1 2 3 4 5 6 7 8 9 10 11 12 13 14 15 16 17 18 19 20 21 22 23 24 25 26 27 28
000
FTUS43 KARX 110908 AAA
TAFLSE
TAF AMD
KLSE 110908Z 1109/1206 18010KT P6SM VCSH BKN110
     FM111300 17010KT P6SM VCSH BKN100
     FM111600 18012G20KT P6SM BKN100
     FM120100 18008KT P6SM BKN070=

USA.gov is the U.S. government's official web portal to all federal, state and local government web resources and services.